Time;durP1;ratioP1;P1;durP2;ratioP2;P2;SDS_P1;SDS_P2;PMS_P1;PMS_P2;Temp;Humidity;BMP_temperature;BMP_pressure;BME280_temperature;BME280_humidity;BME280_pressure;Samples;Min_cycle;Max_cycle;Signal;HPM_P1;HPM_P2
2023/03/03 00:02:04;;;;;;;25.20;11.98;;;;;;;4.27;59.42;100002.75;4468846;32;20477;-87
2023/03/03 00:04:29;;;;;;;32.13;13.85;;;;;;;4.47;59.43;99999.25;4483330;31;20163;-87
2023/03/03 00:06:55;;;;;;;25.50;12.73;;;;;;;4.57;59.44;99998.38;4474775;31;20080;-86
2023/03/03 00:09:23;;;;;;;30.85;12.63;;;;;;;4.65;59.45;99998.31;4468404;31;20125;-86
2023/03/03 00:11:51;;;;;;;31.42;13.85;;;;;;;4.78;59.44;99995.69;4481881;32;20169;-87
2023/03/03 00:14:35;;;;;;;29.37;13.30;;;;;;;4.87;59.46;99998.22;4468601;31;20161;-86
2023/03/03 00:17:03;;;;;;;31.33;12.45;;;;;;;4.69;59.44;99989.72;4470604;32;20154;-87
2023/03/03 00:19:29;;;;;;;28.40;12.43;;;;;;;4.70;59.44;99989.69;4483613;31;20110;-86
2023/03/03 00:21:55;;;;;;;24.60;11.60;;;;;;;4.53;59.43;99988.94;4473872;32;20112;-86
2023/03/03 00:24:22;;;;;;;26.42;11.90;;;;;;;4.50;59.44;99987.22;4460267;31;20176;-86
2023/03/03 00:26:58;;;;;;;29.08;12.13;;;;;;;4.54;59.43;99982.91;4460012;32;20169;-87
2023/03/03 00:29:34;;;;;;;25.40;11.75;;;;;;;4.54;59.43;99983.78;4479569;31;20221;-86
2023/03/03 00:32:21;;;;;;;26.17;11.80;;;;;;;4.41;59.42;99979.50;4482086;32;20105;-88
2023/03/03 00:34:47;;;;;;;24.67;11.20;;;;;;;4.44;59.43;99983.78;4482052;31;20443;-87
2023/03/03 00:37:29;;;;;;;23.65;11.75;;;;;;;4.43;59.43;99979.50;4468788;32;20112;-87
2023/03/03 00:40:00;;;;;;;25.00;11.07;;;;;;;4.14;59.41;99983.03;4471242;32;20118;-85
2023/03/03 00:42:26;;;;;;;21.48;10.27;;;;;;;4.00;59.40;99982.19;4483921;32;20104;-87
2023/03/03 00:44:58;;;;;;;27.48;11.90;;;;;;;4.03;59.40;99982.19;4470700;32;20135;-87
2023/03/03 00:47:31;;;;;;;22.00;10.70;;;;;;;4.06;59.41;99986.50;4483961;32;20088;-87
2023/03/03 00:50:06;;;;;;;24.67;10.73;;;;;;;3.98;59.40;99984.75;4484033;31;20419;-87
2023/03/03 00:52:53;;;;;;;24.65;11.50;;;;;;;4.00;59.40;99977.03;4485675;31;20112;-86
2023/03/03 00:55:21;;;;;;;24.30;11.02;;;;;;;4.17;59.41;99969.28;4469945;32;20116;-87
2023/03/03 00:57:50;;;;;;;23.67;10.52;;;;;;;3.98;59.41;99974.47;4471929;32;20088;-87
2023/03/03 01:00:15;;;;;;;23.12;10.82;;;;;;;4.15;59.41;99977.00;4459757;32;20172;-87
2023/03/03 01:02:44;;;;;;;25.27;11.40;;;;;;;4.18;59.41;99965.84;4476239;32;20108;-86
2023/03/03 01:05:09;;;;;;;27.73;11.77;;;;;;;4.35;59.43;99964.06;4485162;31;20465;-87
2023/03/03 01:07:34;;;;;;;27.67;12.15;;;;;;;4.33;59.42;99968.38;4486061;31;20139;-87
2023/03/03 01:10:00;;;;;;;24.20;11.10;;;;;;;4.01;59.40;99961.56;4470038;32;26029;-88
2023/03/03 01:12:28;;;;;;;27.33;12.05;;;;;;;4.19;59.41;99958.09;4480915;31;20140;-87
2023/03/03 01:14:54;;;;;;;26.95;12.75;;;;;;;4.14;59.41;99946.09;4483500;32;20116;-87
2023/03/03 01:17:19;;;;;;;24.65;11.15;;;;;;;4.38;59.42;99948.59;4480806;31;20499;-86
2023/03/03 01:19:45;;;;;;;27.02;13.10;;;;;;;4.50;59.44;99953.72;4470433;32;20396;-87
2023/03/03 01:22:10;;;;;;;30.92;13.00;;;;;;;4.15;59.41;99952.97;4470254;31;20493;-87
2023/03/03 01:24:35;;;;;;;24.27;11.73;;;;;;;4.30;59.43;99940.91;4470219;32;20164;-87
2023/03/03 01:27:01;;;;;;;29.15;12.23;;;;;;;4.57;59.44;99947.66;4483486;32;20108;-87
2023/03/03 01:29:26;;;;;;;26.95;12.27;;;;;;;4.36;59.43;99945.16;4457126;32;20136;-88
2023/03/03 01:31:52;;;;;;;29.25;11.55;;;;;;;4.53;59.43;99945.09;4472996;31;20183;-86
2023/03/03 01:34:17;;;;;;;22.58;10.77;;;;;;;4.51;59.43;99942.53;4483153;32;20410;-87
2023/03/03 01:36:42;;;;;;;25.65;12.37;;;;;;;4.72;59.45;99943.28;4484785;31;20168;-87
2023/03/03 01:39:09;;;;;;;27.58;12.20;;;;;;;4.65;59.44;99936.44;4484601;31;20123;-87
2023/03/03 01:41:35;;;;;;;25.67;12.40;;;;;;;4.76;59.44;99932.97;4483727;32;20104;-87
2023/03/03 01:44:00;;;;;;;24.58;11.00;;;;;;;4.85;59.45;99924.31;4484655;31;20148;-88
2023/03/03 01:46:58;;;;;;;26.75;11.48;;;;;;;4.61;59.44;99928.72;4483411;32;20132;-87
2023/03/03 01:49:38;;;;;;;25.12;11.05;;;;;;;4.97;59.46;99925.94;4480466;32;20088;-87
2023/03/03 01:52:31;;;;;;;22.35;10.35;;;;;;;4.77;59.44;99926.09;4468210;32;20160;-87
2023/03/03 01:55:01;;;;;;;23.52;9.73;;;;;;;4.83;59.45;99921.72;4477295;31;20096;-87
2023/03/03 01:57:30;;;;;;;21.92;10.00;;;;;;;4.87;59.46;99918.25;4465350;31;20103;-87
2023/03/03 01:59:56;;;;;;;27.00;10.65;;;;;;;5.10;59.47;99920.69;4469793;31;118265;-87
2023/03/03 02:02:21;;;;;;;25.92;10.88;;;;;;;5.20;59.47;99926.63;4483440;32;20100;-87
2023/03/03 02:04:48;;;;;;;23.30;9.90;;;;;;;5.08;59.46;99927.59;4483543;31;20143;-87
2023/03/03 02:07:13;;;;;;;26.00;9.88;;;;;;;5.02;59.46;99921.62;4478297;32;20502;-87
2023/03/03 02:09:56;;;;;;;22.90;10.25;;;;;;;5.05;59.46;99912.13;4485908;31;20092;-87
2023/03/03 02:12:24;;;;;;;23.40;11.27;;;;;;;5.31;59.48;99930.00;4477206;32;20116;-87
2023/03/03 02:14:50;;;;;;;22.13;10.45;;;;;;;4.97;59.45;99921.66;4462727;31;20103;-86
2023/03/03 02:17:15;;;;;;;28.85;11.18;;;;;;;5.15;59.46;99918.94;4475335;31;20111;-86
2023/03/03 02:19:55;;;;;;;24.95;12.13;;;;;;;4.89;59.45;99918.25;4470372;32;20547;-87
2023/03/03 02:22:40;;;;;;;22.87;10.75;;;;;;;4.93;59.46;99915.63;4483519;32;20166;-87
2023/03/03 02:25:07;;;;;;;24.12;11.25;;;;;;;5.04;59.46;99907.84;4483372;32;20159;-86
2023/03/03 02:27:32;;;;;;;26.37;11.57;;;;;;;5.22;59.47;99915.47;4470223;31;20076;-86
2023/03/03 02:30:07;;;;;;;27.30;11.52;;;;;;;5.26;59.48;99912.84;4483176;32;20147;-86
2023/03/03 02:32:33;;;;;;;25.20;10.77;;;;;;;5.30;59.47;99907.66;4457274;31;20097;-87
2023/03/03 02:34:58;;;;;;;21.87;10.05;;;;;;;5.35;59.48;99907.59;4484143;31;20125;-86
2023/03/03 02:37:23;;;;;;;25.65;10.90;;;;;;;5.32;59.48;99917.94;4456655;32;21574;-87
2023/03/03 02:39:49;;;;;;;26.77;10.93;;;;;;;5.31;59.47;99908.50;4482828;32;20131;-87
2023/03/03 02:42:20;;;;;;;21.70;10.55;;;;;;;5.28;59.47;99904.22;4472186;31;20853;-87
2023/03/03 02:44:46;;;;;;;24.75;10.90;;;;;;;5.40;59.49;99903.25;4477120;32;20168;-87
2023/03/03 02:47:11;;;;;;;18.10;9.15;;;;;;;5.43;59.48;99903.22;4472554;31;20342;-87
2023/03/03 02:49:37;;;;;;;20.30;9.85;;;;;;;5.46;59.48;99900.63;4472735;31;20135;-87
2023/03/03 02:52:05;;;;;;;22.98;10.52;;;;;;;5.66;59.49;99900.44;4473810;31;20497;-87
2023/03/03 02:54:31;;;;;;;24.40;10.80;;;;;;;5.86;59.51;99896.78;4476527;32;20105;-87
2023/03/03 02:56:57;;;;;;;23.02;10.45;;;;;;;5.73;59.50;99892.63;4461145;31;20115;-87
2023/03/03 02:59:22;;;;;;;21.48;9.40;;;;;;;5.70;59.50;99884.91;4469721;32;20084;-87
2023/03/03 03:01:48;;;;;;;25.12;9.57;;;;;;;5.82;59.50;99884.75;4482044;32;23491;-87
2023/03/03 03:04:15;;;;;;;25.90;10.63;;;;;;;5.76;59.50;99883.97;4482931;32;20543;-87
2023/03/03 03:06:40;;;;;;;24.37;11.10;;;;;;;5.78;59.51;99877.94;4474730;31;20151;-87
2023/03/03 03:09:06;;;;;;;22.05;10.15;;;;;;;5.81;59.50;99883.06;4485655;31;20104;-88
2023/03/03 03:11:32;;;;;;;20.02;9.93;;;;;;;6.04;59.51;99877.66;4470102;32;20476;-87
2023/03/03 03:13:57;;;;;;;26.62;11.77;;;;;;;5.92;59.51;99879.56;4480152;31;20171;-87
2023/03/03 03:16:23;;;;;;;29.35;11.35;;;;;;;6.24;59.53;99874.00;4485341;31;20137;-87
2023/03/03 03:18:49;;;;;;;21.52;10.45;;;;;;;6.10;59.52;99874.16;4477608;32;20182;-87
2023/03/03 03:21:15;;;;;;;22.17;10.38;;;;;;;6.01;59.52;99869.97;4484361;31;20442;-86
2023/03/03 03:23:40;;;;;;;19.17;9.68;;;;;;;6.02;59.51;99869.09;4482710;31;20150;-87
2023/03/03 03:26:06;;;;;;;22.42;10.63;;;;;;;6.06;59.52;99867.31;4469605;32;20175;-86
2023/03/03 03:28:31;;;;;;;25.42;11.30;;;;;;;6.12;59.51;99864.66;4469338;32;21755;-87
2023/03/03 03:30:57;;;;;;;19.42;9.30;;;;;;;6.28;59.54;99860.16;4456412;31;20181;-87
2023/03/03 03:33:22;;;;;;;20.12;9.95;;;;;;;6.27;59.54;99864.47;4469859;32;20150;-86
2023/03/03 03:35:48;;;;;;;21.23;8.68;;;;;;;6.32;59.53;99857.50;4466728;31;20152;-86
2023/03/03 03:38:13;;;;;;;23.15;9.88;;;;;;;6.29;59.54;99859.28;4470341;32;20145;-86
2023/03/03 03:40:39;;;;;;;22.73;9.73;;;;;;;6.32;59.53;99852.34;4456817;32;24267;-86
2023/03/03 03:43:04;;;;;;;19.27;9.82;;;;;;;6.31;59.53;99850.63;4478750;31;20127;-86
2023/03/03 03:45:30;;;;;;;19.02;9.18;;;;;;;6.36;59.54;99854.00;4469444;32;21232;-87
2023/03/03 03:47:55;;;;;;;18.77;9.27;;;;;;;6.60;59.55;99852.81;4485355;31;20099;-86
2023/03/03 03:50:20;;;;;;;19.80;8.82;;;;;;;6.55;59.54;99848.59;4474654;31;20120;-87
2023/03/03 03:52:46;;;;;;;20.55;9.15;;;;;;;6.67;59.56;99846.69;4476716;32;20426;-88
2023/03/03 03:55:11;;;;;;;18.35;9.27;;;;;;;6.71;59.55;99843.19;4482613;32;20360;-87
2023/03/03 03:57:37;;;;;;;22.05;9.68;;;;;;;6.62;59.55;99843.28;4463636;32;20160;-87
2023/03/03 04:00:04;;;;;;;19.52;9.07;;;;;;;6.62;59.55;99845.03;4467448;32;20473;-86
2023/03/03 04:02:30;;;;;;;16.62;9.15;;;;;;;6.63;59.55;99837.28;4469662;32;20389;-86
2023/03/03 04:04:55;;;;;;;22.52;10.07;;;;;;;6.50;59.55;99840.91;4467516;32;20140;-87
2023/03/03 04:07:21;;;;;;;24.67;10.50;;;;;;;6.58;59.55;99838.19;4469370;32;20092;-87
2023/03/03 04:09:46;;;;;;;20.50;10.25;;;;;;;6.61;59.55;99843.31;4483747;31;20129;-86
2023/03/03 04:12:11;;;;;;;20.83;10.05;;;;;;;6.65;59.54;99832.06;4482267;32;20144;-87
2023/03/03 04:14:37;;;;;;;21.25;10.13;;;;;;;6.80;59.56;99823.22;4472040;31;20145;-87
2023/03/03 04:17:02;;;;;;;20.73;9.52;;;;;;;6.68;59.55;99840.63;4484855;31;20093;-87
2023/03/03 04:19:27;;;;;;;20.20;10.02;;;;;;;6.81;59.57;99827.50;4457000;32;20472;-86
2023/03/03 04:21:53;;;;;;;26.33;10.68;;;;;;;6.96;59.57;99829.84;4456036;32;20167;-86
2023/03/03 04:24:19;;;;;;;22.35;10.25;;;;;;;7.01;59.57;99828.03;4482046;31;20800;-87
2023/03/03 04:26:44;;;;;;;24.67;9.98;;;;;;;6.85;59.56;99826.56;4482028;32;20131;-86
2023/03/03 04:29:10;;;;;;;22.45;9.85;;;;;;;6.89;59.57;99825.66;4468830;31;20491;-86
2023/03/03 04:31:35;;;;;;;28.65;11.98;;;;;;;7.09;59.58;99827.03;4481851;32;20578;-87
2023/03/03 04:34:00;;;;;;;34.85;15.23;;;;;;;6.99;59.57;99816.88;4481613;32;20114;-85
2023/03/03 04:36:26;;;;;;;36.05;14.63;;;;;;;7.05;59.57;99822.78;4455420;32;20122;-86
2023/03/03 04:38:51;;;;;;;33.20;13.60;;;;;;;7.13;59.57;99822.69;4468679;32;20123;-86
2023/03/03 04:41:17;;;;;;;32.25;13.45;;;;;;;7.23;59.58;99829.41;4468485;32;20144;-85
2023/03/03 04:43:42;;;;;;;28.95;12.77;;;;;;;7.17;59.58;99824.34;4480945;31;25646;-86
2023/03/03 04:46:07;;;;;;;27.90;13.13;;;;;;;7.11;59.58;99823.59;4462714;31;20130;-86
2023/03/03 04:48:33;;;;;;;29.63;12.00;;;;;;;7.07;59.57;99821.03;4484795;31;20553;-87
2023/03/03 04:50:58;;;;;;;24.95;10.68;;;;;;;7.08;59.57;99820.16;4468633;32;20183;-88
2023/03/03 04:53:24;;;;;;;26.25;11.55;;;;;;;7.08;59.57;99814.97;4455393;31;20171;-87
2023/03/03 04:55:50;;;;;;;20.50;9.55;;;;;;;7.17;59.58;99824.34;4460489;32;20112;-88
2023/03/03 04:58:18;;;;;;;24.12;10.00;;;;;;;7.18;59.59;99817.41;4469016;31;20138;-87
2023/03/03 05:00:44;;;;;;;19.10;9.77;;;;;;;7.20;59.58;99818.25;4481985;32;20870;-86
2023/03/03 05:03:10;;;;;;;25.30;10.15;;;;;;;7.16;59.57;99819.19;4466187;32;20126;-87
2023/03/03 05:05:36;;;;;;;20.02;9.82;;;;;;;7.18;59.59;99820.00;4468969;32;20119;-88
2023/03/03 05:08:01;;;;;;;20.58;9.60;;;;;;;7.22;59.58;99821.66;4466020;32;20184;-87
2023/03/03 05:10:26;;;;;;;22.33;9.82;;;;;;;7.12;59.58;99822.72;4468289;32;20108;-88
2023/03/03 05:12:52;;;;;;;18.15;9.02;;;;;;;7.13;59.58;99829.59;4466085;32;20145;-88
2023/03/03 05:15:18;;;;;;;20.65;9.32;;;;;;;7.15;59.58;99822.66;4482351;32;20144;-87
2023/03/03 05:17:43;;;;;;;23.50;10.10;;;;;;;7.23;59.58;99818.19;4468222;32;20161;-87
2023/03/03 05:20:09;;;;;;;22.00;9.63;;;;;;;7.24;59.58;99825.06;4481445;32;20104;-87
2023/03/03 05:22:35;;;;;;;19.95;10.98;;;;;;;7.31;59.60;99822.34;4467455;32;20115;-87
2023/03/03 05:25:00;;;;;;;20.37;9.88;;;;;;;7.39;59.59;99824.81;4462007;32;20128;-88
2023/03/03 05:27:26;;;;;;;20.15;10.13;;;;;;;7.55;59.61;99825.37;4483474;31;20516;-87
2023/03/03 05:29:51;;;;;;;21.52;10.52;;;;;;;7.56;59.61;99817.56;4483831;32;20156;-88
2023/03/03 05:32:17;;;;;;;21.62;10.35;;;;;;;7.44;59.59;99823.00;4457301;31;20099;-87
2023/03/03 05:34:42;;;;;;;23.00;10.05;;;;;;;7.56;59.60;99825.34;4470048;32;24806;-87
2023/03/03 05:37:07;;;;;;;21.00;9.60;;;;;;;7.42;59.59;99824.75;4470095;31;20187;-87
2023/03/03 05:39:33;;;;;;;19.95;9.88;;;;;;;7.38;59.59;99825.69;4485047;31;20084;-88
2023/03/03 05:41:59;;;;;;;18.52;10.40;;;;;;;7.36;59.59;99827.47;4483383;31;20077;-88
2023/03/03 05:44:25;;;;;;;18.12;9.13;;;;;;;7.44;59.60;99833.34;4470240;32;20402;-88
2023/03/03 05:46:50;;;;;;;17.50;8.90;;;;;;;7.81;59.62;99830.94;4480416;31;20236;-88
2023/03/03 05:49:16;;;;;;;17.37;9.32;;;;;;;7.83;59.61;99834.34;4460846;32;20242;-87
2023/03/03 05:51:41;;;;;;;17.42;8.57;;;;;;;7.62;59.61;99835.59;4474718;31;20144;-86
2023/03/03 05:54:06;;;;;;;22.05;9.07;;;;;;;7.70;59.61;99833.72;4484518;31;20159;-87
2023/03/03 05:56:32;;;;;;;19.33;8.60;;;;;;;7.69;59.61;99833.75;4482890;31;20183;-85
2023/03/03 05:58:57;;;;;;;18.80;8.95;;;;;;;7.63;59.61;99842.50;4484335;31;20088;-87
2023/03/03 06:01:23;;;;;;;20.58;8.60;;;;;;;7.79;59.62;99840.44;4483765;31;20481;-87
2023/03/03 06:03:48;;;;;;;15.10;8.52;;;;;;;7.77;59.61;99842.22;4483634;32;20080;-87
2023/03/03 06:06:15;;;;;;;17.62;8.65;;;;;;;7.86;59.62;99842.06;4470036;31;20192;-86
2023/03/03 06:08:41;;;;;;;21.42;9.93;;;;;;;7.86;59.62;99838.63;4464956;31;20131;-87
2023/03/03 06:11:06;;;;;;;19.65;9.30;;;;;;;7.85;59.62;99844.69;4486915;31;20128;-88
2023/03/03 06:13:32;;;;;;;21.12;9.77;;;;;;;7.76;59.61;99844.84;4479262;31;20402;-86
2023/03/03 06:15:57;;;;;;;21.85;9.57;;;;;;;7.74;59.61;99847.47;4486306;31;20186;-87
2023/03/03 06:18:23;;;;;;;21.90;10.48;;;;;;;7.84;59.62;99841.25;4469879;32;20156;-87
2023/03/03 06:20:52;;;;;;;26.45;10.60;;;;;;;8.02;59.63;99842.59;4469502;31;20136;-87
2023/03/03 06:23:17;;;;;;;17.98;9.25;;;;;;;8.16;59.64;99840.59;4463765;32;20084;-87
2023/03/03 06:25:43;;;;;;;19.50;9.18;;;;;;;8.14;59.64;99850.13;4483232;32;20527;-88
2023/03/03 06:28:08;;;;;;;18.98;9.32;;;;;;;8.19;59.64;99850.03;4485312;31;20163;-87
2023/03/03 06:30:34;;;;;;;22.58;10.55;;;;;;;8.15;59.63;99851.84;4484036;32;20417;-87
2023/03/03 06:32:59;;;;;;;21.02;9.93;;;;;;;8.37;59.65;99849.69;4483681;32;20140;-87
2023/03/03 06:35:25;;;;;;;20.92;10.25;;;;;;;8.28;59.64;99855.91;4470822;31;20477;-86
2023/03/03 06:37:51;;;;;;;21.45;9.85;;;;;;;8.47;59.65;99848.59;4473131;32;20139;-87
2023/03/03 06:40:16;;;;;;;17.83;9.05;;;;;;;8.60;59.66;99857.81;4482950;31;20096;-86
2023/03/03 06:42:42;;;;;;;22.70;9.88;;;;;;;8.66;59.67;99854.22;4482919;32;20104;-87
2023/03/03 06:45:08;;;;;;;20.30;10.27;;;;;;;8.85;59.67;99857.25;4469519;31;20171;-87
2023/03/03 06:47:33;;;;;;;19.98;8.57;;;;;;;8.89;59.67;99848.50;4483080;32;20091;-86
2023/03/03 06:49:59;;;;;;;19.10;9.05;;;;;;;8.99;59.68;99852.62;4484254;31;20102;-87
2023/03/03 06:52:25;;;;;;;19.12;9.98;;;;;;;9.15;59.69;99861.72;4456956;32;20104;-87
2023/03/03 06:54:55;;;;;;;21.92;11.27;;;;;;;9.29;59.70;99847.56;4456969;31;20108;-87
2023/03/03 06:57:31;;;;;;;27.30;13.70;;;;;;;9.21;59.69;99858.97;4470088;32;20097;-85
2023/03/03 07:00:19;;;;;;;39.90;17.00;;;;;;;9.45;59.71;99861.84;4470028;31;20111;-87
2023/03/03 07:02:45;;;;;;;38.00;18.17;;;;;;;9.48;59.71;99867.84;4470031;32;20126;-86
2023/03/03 07:05:15;;;;;;;36.33;18.60;;;;;;;9.62;59.72;99866.59;4469782;32;20131;-86
2023/03/03 07:07:40;;;;;;;;;;;;;;;9.81;59.73;99855.69;4470429;31;20077;-87
2023/03/03 07:10:27;;;;;;;42.30;19.00;;;;;;;9.74;59.72;99866.31;4484404;31;19976;-86
2023/03/03 07:12:52;;;;;;;35.97;18.12;;;;;;;9.71;59.72;99874.19;4482840;31;20110;-87
2023/03/03 07:15:29;;;;;;;35.15;17.87;;;;;;;9.79;59.73;99862.69;4483203;32;20122;-87
2023/03/03 07:17:57;;;;;;;36.40;17.67;;;;;;;9.89;59.73;99865.00;4469985;32;20116;-88
2023/03/03 07:20:32;;;;;;;36.15;17.65;;;;;;;10.12;59.75;99870.44;4457489;32;20115;-87
2023/03/03 07:22:57;;;;;;;42.40;19.50;;;;;;;10.03;59.74;99868.09;4483034;32;20155;-87
2023/03/03 07:25:34;;;;;;;35.80;18.55;;;;;;;10.17;59.75;99873.75;4456860;32;20131;-87
2023/03/03 07:28:10;;;;;;;35.97;17.80;;;;;;;10.01;59.73;99881.16;4483119;32;20132;-88
2023/03/03 07:30:35;;;;;;;34.42;16.87;;;;;;;10.12;59.74;99875.62;4482878;31;20076;-88
2023/03/03 07:33:01;;;;;;;36.85;18.77;;;;;;;10.12;59.74;99884.28;4469904;32;20122;-87
2023/03/03 07:35:42;;;;;;;38.13;18.52;;;;;;;10.09;59.75;99883.53;4482385;31;20426;-87
2023/03/03 07:38:19;;;;;;;37.92;18.55;;;;;;;10.10;59.74;99887.81;4483006;32;20092;-87
2023/03/03 07:40:48;;;;;;;34.88;17.17;;;;;;;10.06;59.74;99892.28;4469833;32;20096;-87
2023/03/03 07:43:37;;;;;;;38.65;18.10;;;;;;;10.22;59.74;99886.69;4470197;32;20453;-86
2023/03/03 07:46:08;;;;;;;36.87;17.67;;;;;;;10.43;59.76;99892.13;4455227;31;20119;-87
2023/03/03 07:48:35;;;;;;;35.13;17.27;;;;;;;10.32;59.76;99890.72;4486448;31;20460;-87
2023/03/03 07:51:24;;;;;;;37.40;18.95;;;;;;;10.38;59.76;99886.19;4484653;31;20065;-86
2023/03/03 07:53:51;;;;;;;34.88;16.70;;;;;;;10.62;59.78;99892.41;4485162;31;20163;-87
2023/03/03 07:56:33;;;;;;;40.20;17.67;;;;;;;10.86;59.78;99892.56;4464381;31;20101;-87
2023/03/03 07:58:58;;;;;;;40.10;17.67;;;;;;;10.73;59.77;99886.91;4483026;31;20108;-87
2023/03/03 08:01:41;;;;;;;32.45;16.90;;;;;;;10.67;59.77;99890.53;4469504;31;20115;-87
2023/03/03 08:04:26;;;;;;;32.30;16.83;;;;;;;10.76;59.79;99892.84;4462999;31;20135;-87
2023/03/03 08:06:58;;;;;;;31.58;15.65;;;;;;;10.76;59.79;99892.84;4469898;32;20449;-87
2023/03/03 08:09:36;;;;;;;30.15;15.95;;;;;;;10.71;59.78;99884.34;4469692;31;20144;-87
2023/03/03 08:12:11;;;;;;;33.13;16.23;;;;;;;10.79;59.78;99893.66;4482818;32;20080;-87
2023/03/03 08:14:37;;;;;;;36.00;16.27;;;;;;;10.89;59.78;99890.75;4469628;32;20088;-87
2023/03/03 08:17:19;;;;;;;30.40;14.32;;;;;;;11.05;59.79;99884.13;4482441;32;20464;-88
2023/03/03 08:19:44;;;;;;;28.20;13.90;;;;;;;11.30;59.81;99884.19;4469991;32;20143;-87
2023/03/03 08:22:15;;;;;;;30.77;14.85;;;;;;;11.44;59.81;99875.09;4469176;32;20122;-87
2023/03/03 08:24:40;;;;;;;30.00;14.93;;;;;;;11.55;59.82;99876.41;4469628;32;20109;-86
2023/03/03 08:27:06;;;;;;;33.60;14.30;;;;;;;11.85;59.84;99871.94;4469101;32;20517;-87
2023/03/03 08:29:31;;;;;;;26.75;13.75;;;;;;;12.08;59.85;99878.09;4483717;31;20140;-87
2023/03/03 08:31:57;;;;;;;24.92;12.48;;;;;;;12.21;59.86;99874.13;4483694;31;20172;-87
2023/03/03 08:34:22;;;;;;;23.25;11.65;;;;;;;12.35;59.86;99871.87;4484088;31;20121;-88
2023/03/03 08:36:48;;;;;;;28.90;13.77;;;;;;;12.44;59.87;99871.50;4486185;31;20160;-88
2023/03/03 08:39:13;;;;;;;25.58;11.93;;;;;;;12.43;59.88;99875.03;4482367;32;20100;-87
2023/03/03 08:41:42;;;;;;;27.15;12.60;;;;;;;12.55;59.88;99876.34;4465023;31;20096;-87
2023/03/03 08:44:08;;;;;;;21.98;12.63;;;;;;;12.49;59.87;99879.16;4484314;31;20092;-87
2023/03/03 08:46:33;;;;;;;24.02;12.30;;;;;;;12.57;59.88;99875.38;4483498;31;20429;-88
2023/03/03 08:48:59;;;;;;;22.05;12.05;;;;;;;12.80;59.89;99876.25;4482031;32;20165;-87
2023/03/03 08:51:25;;;;;;;26.65;12.90;;;;;;;12.84;59.89;99870.00;4478934;31;20147;-88
2023/03/03 08:53:51;;;;;;;21.58;10.82;;;;;;;12.93;59.90;99876.59;4469627;32;20100;-88
2023/03/03 08:56:16;;;;;;;19.50;11.12;;;;;;;13.19;59.92;99871.22;4466062;31;20146;-88
2023/03/03 08:58:46;;;;;;;23.65;12.20;;;;;;;13.21;59.91;99872.00;4482653;31;20096;-88
2023/03/03 09:01:15;;;;;;;23.60;11.90;;;;;;;13.25;59.91;99868.38;4471537;31;20096;-88
2023/03/03 09:03:41;;;;;;;23.27;11.82;;;;;;;13.38;59.92;99868.69;4477423;31;20088;-87
2023/03/03 09:06:07;;;;;;;26.60;12.73;;;;;;;13.51;59.93;99869.91;4488446;31;20397;-88
2023/03/03 09:08:32;;;;;;;21.42;11.32;;;;;;;13.73;59.94;99869.84;4484666;32;20117;-88
2023/03/03 09:11:00;;;;;;;19.73;10.73;;;;;;;13.71;59.94;99869.03;4484535;31;20076;-89
2023/03/03 09:13:28;;;;;;;19.73;10.40;;;;;;;13.76;59.94;99867.94;4458943;32;20115;-87
2023/03/03 09:15:53;;;;;;;22.70;11.95;;;;;;;13.72;59.94;99871.59;4485190;31;20104;-88
2023/03/03 09:18:29;;;;;;;23.33;11.48;;;;;;;13.97;59.95;99862.69;4484371;32;20132;-88
2023/03/03 09:20:56;;;;;;;21.35;11.32;;;;;;;13.93;59.95;99868.94;4484503;32;20080;-88
2023/03/03 09:23:57;;;;;;;19.37;10.95;;;;;;;14.09;59.96;99867.38;4485639;31;20510;-88
2023/03/03 09:26:29;;;;;;;19.87;10.32;;;;;;;14.20;59.97;99861.66;4470981;32;20444;-88
2023/03/03 09:29:08;;;;;;;22.58;11.93;;;;;;;14.22;59.97;99859.84;4471346;32;20092;-88
2023/03/03 09:31:56;;;;;;;23.37;11.67;;;;;;;14.10;59.97;99850.75;4484287;32;20089;-88
2023/03/03 09:34:34;;;;;;;21.95;11.93;;;;;;;14.21;59.97;99855.50;4485562;31;20085;-88
2023/03/03 09:37:00;;;;;;;23.42;11.27;;;;;;;14.20;59.97;99857.28;4484347;32;20139;-88
2023/03/03 09:39:26;;;;;;;24.52;11.43;;;;;;;14.40;59.98;99870.28;4490505;31;20108;-87
2023/03/03 09:41:54;;;;;;;21.65;11.90;;;;;;;14.43;59.97;99864.97;4488592;31;20139;-87
2023/03/03 09:44:39;;;;;;;20.35;10.88;;;;;;;14.52;59.98;99868.06;4485438;31;20161;-87
2023/03/03 09:47:27;;;;;;;20.67;11.02;;;;;;;14.25;59.96;99864.91;4468753;31;20127;-87
2023/03/03 09:50:08;;;;;;;23.52;11.45;;;;;;;14.45;59.98;99866.66;4484007;32;20163;-87
2023/03/03 09:52:40;;;;;;;24.00;13.20;;;;;;;14.38;59.98;99866.91;4484051;31;20157;-87
2023/03/03 09:55:33;;;;;;;18.55;10.93;;;;;;;14.30;59.97;99863.78;4470666;31;20092;-88
2023/03/03 09:58:07;;;;;;;19.12;10.65;;;;;;;14.33;59.98;99866.25;4485196;31;20370;-87
2023/03/03 10:00:41;;;;;;;20.67;10.07;;;;;;;14.24;59.97;99858.84;4483956;32;20100;-87
2023/03/03 10:03:18;;;;;;;14.50;8.90;;;;;;;14.04;59.97;99858.88;4483911;31;20095;-87
2023/03/03 10:05:57;;;;;;;22.55;12.00;;;;;;;14.05;59.96;99848.34;4485141;31;20154;-87
2023/03/03 10:08:26;;;;;;;18.70;11.27;;;;;;;14.17;59.96;99856.53;4483653;32;20450;-87
2023/03/03 10:11:09;;;;;;;20.52;11.20;;;;;;;14.29;59.98;99856.84;4482933;31;20109;-88
2023/03/03 10:13:59;;;;;;;20.48;9.80;;;;;;;14.29;59.97;99851.63;4483698;32;20555;-87
2023/03/03 10:16:37;;;;;;;18.90;9.25;;;;;;;14.46;59.98;99857.91;4485029;31;20081;-87
2023/03/03 10:19:13;;;;;;;15.55;8.35;;;;;;;14.33;59.98;99858.41;4483864;31;20165;-88
2023/03/03 10:21:49;;;;;;;19.12;8.05;;;;;;;14.43;59.98;99853.63;4483909;32;20104;-88
2023/03/03 10:24:30;;;;;;;15.00;8.25;;;;;;;14.62;59.99;99843.13;4483470;31;20088;-88
2023/03/03 10:27:04;;;;;;;17.42;8.73;;;;;;;14.77;59.99;99852.91;4484018;32;20171;-88
2023/03/03 10:29:32;;;;;;;16.52;7.87;;;;;;;14.80;60.01;99837.03;4483734;32;20131;-88
2023/03/03 10:32:26;;;;;;;20.92;8.18;;;;;;;14.89;60.01;99839.19;4483737;32;20461;-87
2023/03/03 10:34:54;;;;;;;13.68;7.30;;;;;;;15.12;60.02;99829.38;4485189;31;20499;-88
2023/03/03 10:37:28;;;;;;;15.30;8.05;;;;;;;14.96;60.01;99834.53;4470769;32;20149;-88
2023/03/03 10:40:20;;;;;;;12.55;7.18;;;;;;;15.20;60.02;99829.84;4483782;32;20147;-88
2023/03/03 10:42:56;;;;;;;17.62;8.43;;;;;;;15.30;60.03;99826.69;4484857;31;20125;-88
2023/03/03 10:45:29;;;;;;;13.27;8.35;;;;;;;15.19;60.02;99822.91;4471022;31;20076;-88
2023/03/03 10:48:25;;;;;;;13.75;7.43;;;;;;;15.13;60.02;99820.56;4483568;32;20116;-88
2023/03/03 10:51:07;;;;;;;16.30;8.10;;;;;;;15.36;60.03;99817.66;4484965;31;20115;-88
2023/03/03 10:53:34;;;;;;;14.60;7.95;;;;;;;15.36;60.03;99815.88;4485182;32;20104;-88
2023/03/03 10:56:14;;;;;;;14.05;7.87;;;;;;;15.53;60.04;99811.56;4458709;32;20092;-88
2023/03/03 10:58:47;;;;;;;19.25;7.75;;;;;;;15.56;60.05;99822.75;4483369;32;20123;-88
2023/03/03 11:01:29;;;;;;;11.95;7.15;;;;;;;15.79;60.06;99816.34;4483275;31;20100;-88
2023/03/03 11:04:17;;;;;;;15.45;8.02;;;;;;;15.84;60.05;99805.59;4471550;32;20116;-88
2023/03/03 11:07:00;;;;;;;15.60;8.13;;;;;;;15.85;60.07;99804.66;4483558;32;20167;-88
2023/03/03 11:09:39;;;;;;;16.35;8.48;;;;;;;16.06;60.07;99800.06;4470247;31;20084;-89
2023/03/03 11:12:24;;;;;;;14.45;7.57;;;;;;;16.20;60.08;99801.00;4466809;31;20458;-88
2023/03/03 11:15:01;;;;;;;14.20;8.70;;;;;;;16.14;60.07;99801.34;4483500;31;20586;-88
2023/03/03 11:17:30;;;;;;;15.65;7.55;;;;;;;15.93;60.07;99800.72;4483324;31;20102;-88
2023/03/03 11:20:03;;;;;;;17.70;9.38;;;;;;;16.02;60.07;99794.13;4484739;31;20443;-87
2023/03/03 11:22:44;;;;;;;16.48;8.15;;;;;;;16.08;60.08;99798.19;4483433;32;20065;-88
2023/03/03 11:25:26;;;;;;;16.40;9.10;;;;;;;15.87;60.06;99781.84;4484685;31;20138;-88
2023/03/03 11:28:10;;;;;;;17.05;8.75;;;;;;;15.58;60.04;99786.81;4483133;32;20153;-88
2023/03/03 11:31:08;;;;;;;25.90;8.10;;;;;;;15.79;60.06;99787.47;4483084;31;20126;-88
2023/03/03 11:33:46;;;;;;;13.52;8.10;;;;;;;15.73;60.05;99777.31;4482988;32;20157;-88
2023/03/03 11:36:22;;;;;;;14.87;8.70;;;;;;;15.59;60.05;99778.00;4484397;31;20100;-87
2023/03/03 11:38:52;;;;;;;17.70;7.40;;;;;;;15.43;60.04;99769.22;4470042;31;20089;-88